This is the latest recevied weather packets stored in our database for station/object WX1NWA. If no packets are shown the sender has not sent any weather packets the latest 10 day(s).
| Time | Temp. | Humidity | Pressure | Rain* | Wind** | Luminosity | Snow |
|---|---|---|---|---|---|---|---|
| 1777668332 | 16.67° C | 43% | 1018.4 hPa | 0 mm | - | 606 W/m² | - |
| 1777668028 | 16.11° C | 42% | 1018.6 hPa | 0 mm | - | 477 W/m² | - |
| 1777667725 | 16.67° C | 43% | 1018.8 hPa | 0 mm | - | 342 W/m² | - |
| 1777667423 | 17.22° C | 43% | 1018.8 hPa | 0 mm | - | 591 W/m² | - |
| 1777667119 | 16.67° C | 43% | 1019.2 hPa | 0 mm | - | 515 W/m² | - |
| 1777666815 | 16.11° C | 44% | 1019.3 hPa | 0 mm | - | 589 W/m² | - |
| 1777666513 | 15.56° C | 42% | 1019.6 hPa | 0 mm | - | 327 W/m² | - |
| 1777666209 | 16.67° C | 43% | 1019.5 hPa | 0 mm | - | 319 W/m² | - |
| 1777665907 | 16.67° C | 41% | 1019.5 hPa | 0 mm | - | 421 W/m² | - |
| 1777665604 | 15.56° C | 41% | 1020 hPa | 0 mm | - | 340 W/m² | - |
| 1777665301 | 16.67° C | 40% | 1019.7 hPa | 0 mm | - | 348 W/m² | - |
| 1777664996 | 16.67° C | 38% | 1019.7 hPa | 0 mm | - | 355 W/m² | - |
| 1777664692 | 16.67° C | 43% | 1020 hPa | 0 mm | - | 559 W/m² | - |
| 1777664388 | 17.22° C | 42% | 1020.2 hPa | 0 mm | - | 352 W/m² | - |
| 1777664086 | 17.22° C | 39% | 1020.3 hPa | 0 mm | - | 490 W/m² | - |
| 1777663784 | 17.78° C | 41% | 1020.3 hPa | 0 mm | - | 604 W/m² | - |
| 1777663481 | 16.11° C | 41% | 1020.4 hPa | 0 mm | - | 654 W/m² | - |
| 1777663178 | 16.11° C | 37% | 1020.6 hPa | 0 mm | - | 711 W/m² | - |
| 1777662875 | 16.11° C | 41% | 1020.4 hPa | 0 mm | - | 647 W/m² | - |
| 1777662572 | 16.67° C | 42% | 1020.6 hPa | 0 mm | - | 452 W/m² | - |
| 1777662268 | 16.67° C | 44% | 1020.4 hPa | 0 mm | - | 651 W/m² | - |
| 1777661963 | 16.67° C | 41% | 1020.4 hPa | 0 mm | - | 537 W/m² | - |
| 1777661660 | 16.11° C | 45% | 1020.6 hPa | 0 mm | - | 450 W/m² | - |
| 1777661355 | 16.11° C | 41% | 1020.9 hPa | 0 mm | - | 375 W/m² | - |
| 1777661052 | 16.11° C | 45% | 1021 hPa | 0 mm | - | 587 W/m² | - |
* Rain latest hour (hover to see other rain measurements)
** Current wind speed in m/s (hover to see current wind gust speed)